Burden Field-(Rabbit Run) Airport

61WA · Washington, États-Unis

METAR anciennes 61WA · Burden Field-(Rabbit Run) Airport

Tu vois ci-dessous les METAR des derniers jours. Sélectionne une année pour parcourir les METAR plus anciens, à partir de l'année 2007.

2 décembre 2022

Temps Code Temps Temp. Vue Base cloud Vent METAR/SPECI
11:53
M
4 °C 10 mi 2.000 ft 120° 120° 14 - 24 kt METAR KFHR 021953Z AUTO 12014G24KT 10SM OVC020 04/01 A3003 RMK AO2 SLP171 T00440006
10:53
M
3 °C 10 mi 1.700 ft 110° 110° 10 kt METAR KFHR 021853Z AUTO 11010KT 10SM OVC017 03/00 A3005 RMK AO2 SLP176 T00330000
09:53
M
3 °C 10 mi 1.600 ft 100° 100° 9 kt METAR KFHR 021753Z AUTO 10009KT 10SM OVC016 03/M01 A3005 RMK AO2 SLP178 T00281011 10028 20000 53007
08:53
M
2 °C 10 mi 2.000 ft 100° 100° 8 kt METAR KFHR 021653Z AUTO 10008KT 10SM OVC020 02/M02 A3004 RMK AO2 SLP175 T00221022
07:53
M
1 °C 10 mi 2.000 ft 080° 080° 6 kt METAR KFHR 021553Z AUTO 08006KT 10SM OVC020 01/M03 A3003 RMK AO2 SLP170 T00111033
06:53
M
1 °C 10 mi 2.000 ft 070° 070° 7 kt METAR KFHR 021453Z AUTO 07007KT 10SM OVC020 01/M03 A3003 RMK AO2 SLP170 T00061033 51003
06:02
M
1 °C 10 mi 2.400 ft 070° 070° 7 kt METAR KFHR 021402Z AUTO 07007KT 10SM BKN024 BKN070 OVC080 01/M03 A3002 RMK AO2 T00061033
05:53
V
1 °C 10 mi 7.000 ft 080° 080° 5 kt METAR KFHR 021353Z AUTO 08005KT 10SM SCT026 BKN070 OVC080 01/M03 A3003 RMK AO2 SLP169 T00061033
04:53
V
0 °C 10 mi 8.000 ft 080° 080° 6 kt METAR KFHR 021253Z AUTO 08006KT 10SM FEW027 OVC080 00/M04 A3002 RMK AO2 SLP168 T00001039
03:53
V
0 °C 10 mi 8.000 ft 080° 080° 6 kt METAR KFHR 021153Z AUTO 08006KT 10SM OVC080 00/M04 A3002 RMK AO2 SLP167 T00001039 10000 21039 51008
02:53
V
-1 °C 10 mi 8.000 ft 070° 070° 5 kt METAR KFHR 021053Z AUTO 07005KT 10SM FEW023 FEW060 OVC080 M01/M04 A3002 RMK AO2 SLP167 T10061039
01:53
V
-1 °C 10 mi 7.500 ft 080° 080° 6 kt METAR KFHR 020953Z AUTO 08006KT 10SM OVC075 M01/M05 A3000 RMK AO2 SLP162 T10061050
00:53
V
-1 °C 10 mi 6.000 ft 040° 040° 3 kt METAR KFHR 020853Z AUTO 04003KT 10SM BKN060 OVC080 M01/M04 A3000 RMK AO2 SLP159 T10111044 51019

1 décembre 2022

Temps Code Temps Temp. Vue Base cloud Vent METAR/SPECI
23:53
V
-1 °C 10 mi 7.000 ft 040° 040° 4 kt METAR KFHR 020753Z AUTO 04004KT 10SM OVC070 M01/M05 A2998 RMK AO2 SLP154 T10111050 400111044
22:53
V
-2 °C 10 mi 6.000 ft 040° 040° 3 kt METAR KFHR 020653Z AUTO 04003KT 10SM OVC060 M02/M06 A2996 RMK AO2 SLP147 T10171056
21:53
V
-4 °C 10 mi 5.500 ft Var 000° 0 kt METAR KFHR 020553Z AUTO 00000KT 10SM BKN055 M04/M07 A2994 RMK AO2 SLP140 T10391067 11006 21044 53015
20:53
V
-4 °C 10 mi - Var 000° 0 kt METAR KFHR 020453Z AUTO 00000KT 10SM CLR M04/M07 A2992 RMK AO2 SLP133 T10391067
19:53
V
-4 °C 10 mi - Var 000° 0 kt METAR KFHR 020353Z AUTO 00000KT 10SM CLR M04/M07 A2991 RMK AO2 SLP129 T10391067
18:53
V
-3 °C 10 mi - Var 000° 0 kt METAR KFHR 020253Z AUTO 00000KT 10SM CLR M03/M07 A2990 RMK AO2 SLP125 T10331067 51019
17:53
V
-3 °C 10 mi - Var 000° 0 kt METAR KFHR 020153Z AUTO 00000KT 10SM CLR M03/M07 A2988 RMK AO2 SLP120 T10281067
16:53
V
-2 °C 10 mi - Var 000° 0 kt METAR KFHR 020053Z AUTO 00000KT 10SM CLR M02/M07 A2986 RMK AO2 SLP111 T10221072
15:53
V
-1 °C 10 mi - Var 000° 0 kt METAR KFHR 012353Z AUTO 00000KT 10SM FEW031 M01/M07 A2984 RMK AO2 SLP106 T10061072 10011 21006 53016
15:22
V
0 °C 10 mi - 040° 040° 5 kt METAR KFHR 012322Z AUTO 04005KT 10SM SCT029 00/M07 A2983 RMK AO2 T00001067
14:53
M
0 °C 10 mi 2.900 ft Var Var 5 kt METAR KFHR 012253Z AUTO VRB05KT 10SM OVC029 00/M07 A2982 RMK AO2 SLP100 T00001067
13:53
M
1 °C 10 mi 2.900 ft 020° 020° 8 kt METAR KFHR 012153Z AUTO 02008KT 10SM BKN029 01/M08 A2980 RMK AO2 SLP093 T00061078
12:53
M
1 °C 10 mi 2.900 ft 020° 020° 9 kt METAR KFHR 012053Z AUTO 02009KT 10SM BKN029 01/M08 A2979 RMK AO2 SLP090 T00061083 53013
12:29
M
1 °C 10 mi 2.900 ft 030° 030° 8 kt METAR KFHR 012029Z AUTO 03008KT 10SM BKN029 01/M08 A2979 RMK AO2 T00061083
11:53
V
1 °C 10 mi - 020° 020° 12 kt METAR KFHR 011953Z AUTO 02012KT 10SM SCT030 01/M08 A2978 RMK AO2 SLP085 T00061083
10:53
V
1 °C 10 mi - 020° 020° 11 - 17 kt METAR KFHR 011853Z AUTO 02011G17KT 10SM FEW029 01/M08 A2977 RMK AO2 SLP080 T00111078
09:53
V
-1 °C 10 mi 3.200 ft 010° 010° 7 kt METAR KFHR 011753Z AUTO 01007KT 320V020 10SM OVC032 M01/M09 A2976 RMK AO2 SLP077 T10061089 10006 21011 51027
08:53
V
-1 °C 10 mi 3.000 ft 010° 010° 7 kt METAR KFHR 011653Z AUTO 01007KT 10SM BKN030 OVC038 M01/M09 A2973 RMK AO2 SLP069 T10111089
07:53
V
-1 °C 10 mi 11.000 ft 010° 010° 10 - 20 kt METAR KFHR 011553Z AUTO 01010G20KT 10SM FEW030 OVC110 M01/M08 A2970 RMK AO2 SLP059 T10111083
06:53
V
-1 °C 10 mi 11.000 ft 020° 020° 9 - 18 kt METAR KFHR 011453Z AUTO 02009G18KT 10SM FEW031 BKN110 M01/M08 A2968 RMK AO2 SLP050 T10061078 53021
05:53
V
-1 °C 10 mi 3.500 ft 010° 010° 12 - 26 kt METAR KFHR 011353Z AUTO 01012G26KT 10SM BKN035 M01/M07 A2965 RMK AO2 PK WND 02026/1346 SLP040 T10061072
04:53
V
1 °C 10 mi 11.000 ft 030° 030° 12 - 20 kt METAR KFHR 011253Z AUTO 03012G20KT 10SM OVC110 01/M06 A2962 RMK AO2 SLP032 T00061056
03:53
V
0 °C 10 mi - 020° 020° 8 kt METAR KFHR 011153Z AUTO 02008KT 10SM FEW036 00/M05 A2961 RMK AO2 SLP029 70005 I6000 T00001050 10011 21017 53011
02:53
V
1 °C 10 mi 12.000 ft 010° 010° 11 kt METAR KFHR 011053Z AUTO 01011KT 10SM BKN120 01/M04 A2960 RMK AO2 SLP025 T00061039
01:53
V
1 °C 10 mi 12.000 ft Var Var 4 kt METAR KFHR 010953Z AUTO VRB04KT 10SM BKN120 01/M02 A2959 RMK AO2 SLP020 T00111017
00:53
V
0 °C 10 mi - 320° 320° 3 kt METAR KFHR 010853Z AUTO 32003KT 10SM CLR 00/M01 A2958 RMK AO2 SLP018 I1000 I3000 T00001011 53009

30 novembre 2022

Temps Code Temps Temp. Vue Base cloud Vent METAR/SPECI
23:53
V
-1 °C 10 mi - Var 000° 0 kt METAR KFHR 010753Z AUTO 00000KT 10SM CLR M01/M02 A2957 RMK AO2 SLP013 T10061017 400501011
22:53
V
0 °C 10 mi - 360° 360° 3 kt METAR KFHR 010653Z AUTO 36003KT 10SM CLR 00/M02 A2957 RMK AO2 SLP013 T00001017
21:53
V
0 °C 10 mi - Var 000° 0 kt METAR KFHR 010553Z AUTO 00000KT 10SM CLR 00/M03 A2955 RMK AO2 SLP009 T00001028 10028 21011 51007
20:53
V
-1 °C 10 mi - Var 000° 0 kt METAR KFHR 010453Z AUTO 00000KT 10SM CLR M01/M03 A2955 RMK AO2 SLP007 T10061028
19:53
V
0 °C 10 mi - Var 000° 0 kt METAR KFHR 010353Z AUTO 00000KT 10SM CLR 00/M02 A2955 RMK AO2 SLP006 T00001017
18:53
V
0 °C 10 mi - Var 000° 0 kt METAR KFHR 010253Z AUTO 00000KT 10SM CLR 00/M01 A2953 RMK AO2 SLP002 T00001011 50002
17:53
V
1 °C 10 mi - Var 000° 0 kt METAR KFHR 010153Z AUTO 00000KT 10SM CLR 01/M02 A2954 RMK AO2 SLP003 T00061017
16:53
V
2 °C 10 mi - Var 000° 0 kt METAR KFHR 010053Z AUTO 00000KT 10SM CLR 02/M02 A2953 RMK AO2 SLP999 T00171022
15:53
V
3 °C 10 mi - Var 000° 0 kt METAR KFHR 302353Z AUTO 00000KT 10SM CLR 03/M02 A2953 RMK AO2 SLP999 T00281022 10050 20028 56002
14:53
V
4 °C 10 mi - Var 000° 0 kt METAR KFHR 302253Z AUTO 00000KT 10SM FEW110 04/M02 A2953 RMK AO2 SLP000 T00441017
13:53
V
5 °C 10 mi 12.000 ft Var 000° 0 kt METAR KFHR 302153Z AUTO 00000KT 10SM OVC120 05/M04 A2953 RMK AO2 SLP000 T00501039
12:53
V
5 °C 10 mi - 030° 030° 4 kt METAR KFHR 302053Z AUTO 03004KT 10SM CLR 05/M03 A2953 RMK AO2 SLP001 T00501028 50003
11:53
V
5 °C 10 mi 8.500 ft Var 000° 0 kt METAR KFHR 301953Z AUTO 00000KT 10SM BKN085 05/M02 A2953 RMK AO2 SLP001 T00501017
10:53
V
4 °C 10 mi - Var 000° 0 kt METAR KFHR 301853Z AUTO 00000KT 10SM SCT080 04/M01 A2954 RMK AO2 SLP003 T00441006
09:53
V
4 °C 10 mi - Var Var 4 kt METAR KFHR 301753Z AUTO VRB04KT 10SM CLR 04/M03 A2952 RMK AO2 SLP998 60005 T00391028 10044 20028 53032
08:53
V
3 °C 10 mi - Var Var 4 kt METAR KFHR 301653Z AUTO VRB04KT 10SM CLR 03/M03 A2950 RMK AO2 PRESRR SLP991 T00331028
07:53
V
3 °C 10 mi - 230° 230° 11 - 23 kt METAR KFHR 301553Z AUTO 23011G23KT 10SM CLR 03/M02 A2945 RMK AO2 PK WND 25030/1516 SLP973 T00281017
06:53
V
3 °C 10 mi - Var Var 6 - 17 kt METAR KFHR 301453Z AUTO VRB06G17KT 10SM CLR 03/00 A2943 RMK AO2 SLP966 60005 T00330000 53015
05:53
V
3 °C 10 mi - Var Var 4 - 18 kt METAR KFHR 301353Z AUTO VRB04G18KT 10SM CLR 03/01 A2940 RMK AO2 RAB00E10 SLP957 P0000 T00330011
05:25
V
4 °C 10 mi - 220° 220° 4 kt METAR KFHR 301325Z AUTO 22004KT 10SM FEW015 SCT020 SCT060 04/02 A2939 RMK AO2 RAB00E10 P0000 T00390017
04:53
M
4 °C 10 mi 2.200 ft 180° 180° 6 kt METAR KFHR 301253Z AUTO 18006KT 10SM FEW010 SCT016 OVC022 04/03 A2938 RMK AO2 RAB01E43 SLP951 P0005 T00440033
04:35
M
4 °C 8 mi 1.200 ft 190° 190° 7 kt METAR KFHR 301235Z AUTO 19007KT 8SM -RA SCT008 BKN012 OVC026 04/04 A2939 RMK AO2 RAB01 P0005 T00440039
03:53
I
4 °C 10 mi 700 ft 160° 160° 8 - 16 kt METAR KFHR 301153Z AUTO 16008G16KT 10SM BKN007 OVC015 04/03 A2938 RMK AO2 RAB13E46 CIG 006V010 SLP948 P0002 60013 70016 T00390028 10044 20033 50000
02:53
I
3 °C 10 mi 800 ft 140° 140° 16 - 24 kt METAR KFHR 301053Z AUTO 14016G24KT 10SM OVC008 03/02 A2938 RMK AO2 PK WND 16030/1016 RAE0955 SLP949 P0000 T00330022
01:53
I
3 °C 10 mi 800 ft 150° 150° 16 - 28 kt METAR KFHR 300953Z AUTO 15016G28KT 10SM -RA BKN008 OVC013 03/02 A2938 RMK AO2 PK WND 16034/0931 CIG 007V012 SLP949 P0008 T00330022

Nous et des tiers suivons ton comportement Internet sur notre site Web à l'aide de cookies. Si tu continues, nous supposons que tu es d'accord avec notre Politique en matière de cookies.